Time;durP1;ratioP1;P1;durP2;ratioP2;P2;SDS_P1;SDS_P2;PMS_P1;PMS_P2;Temp;Humidity;BMP_temperature;BMP_pressure;BME280_temperature;BME280_humidity;BME280_pressure;Samples;Min_cycle;Max_cycle;Signal;HPM_P1;HPM_P2
2022/03/22 00:01:38;;;;;;;13.25;5.17;;;;;;;5.17;62.24;101448.24;1655261;85;21020;-71
2022/03/22 00:04:08;;;;;;;14.83;5.53;;;;;;;5.18;62.18;101454.55;1654740;85;21207;-70
2022/03/22 00:06:36;;;;;;;13.88;5.22;;;;;;;5.17;62.14;101448.24;1667943;85;21079;-69
2022/03/22 00:09:03;;;;;;;14.98;4.83;;;;;;;5.17;62.18;101450.16;1669510;84;21013;-71
2022/03/22 00:11:33;;;;;;;11.22;4.42;;;;;;;5.19;62.06;101448.00;1677736;84;21557;-69
2022/03/22 00:14:13;;;;;;;15.83;5.22;;;;;;;5.19;61.90;101446.11;1677188;84;21585;-69
2022/03/22 00:16:44;;;;;;;16.20;5.65;;;;;;;5.19;62.02;101448.00;1674035;85;21152;-70
2022/03/22 00:19:10;;;;;;;19.67;5.28;;;;;;;5.18;61.88;101447.19;1675170;84;21032;-70
2022/03/22 00:21:38;;;;;;;15.32;5.70;;;;;;;5.18;61.93;101447.19;1680752;84;20972;-71
2022/03/22 00:24:06;;;;;;;12.18;4.55;;;;;;;5.20;61.83;101442.85;1678653;84;21076;-71
2022/03/22 00:26:33;;;;;;;14.70;5.60;;;;;;;5.20;61.78;101451.05;1679632;84;21168;-69
2022/03/22 00:29:00;;;;;;;11.85;5.40;;;;;;;5.20;61.88;101453.78;1675615;84;21583;-72
2022/03/22 00:31:33;;;;;;;22.73;5.75;;;;;;;5.17;61.92;101446.87;1668309;83;20973;-70
2022/03/22 00:34:02;;;;;;;;;;;;;;;5.14;61.97;101442.41;1680331;84;21040;-72
2022/03/22 00:36:31;;;;;;;19.05;5.83;;;;;;;5.09;62.04;101443.97;1673761;84;20366;-70
2022/03/22 00:38:58;;;;;;;21.73;5.60;;;;;;;5.07;62.06;101442.00;1675093;84;21438;-70
2022/03/22 00:41:25;;;;;;;19.02;6.00;;;;;;;5.04;62.23;101439.74;1667786;84;22155;-72
2022/03/22 00:43:53;;;;;;;20.60;6.10;;;;;;;5.02;62.23;101436.41;1671873;84;21014;-71
2022/03/22 00:46:20;;;;;;;17.27;5.90;;;;;;;4.98;62.25;101435.23;1675245;84;21091;-71
2022/03/22 00:48:48;;;;;;;17.55;5.45;;;;;;;4.94;62.32;101436.75;1668493;84;20942;-72
2022/03/22 00:51:27;;;;;;;16.05;5.90;;;;;;;4.90;62.38;101436.39;1660755;85;20989;-71
2022/03/22 00:53:54;;;;;;;21.45;6.20;;;;;;;4.88;62.41;101434.42;1675527;84;21442;-71
2022/03/22 00:56:20;;;;;;;11.48;4.90;;;;;;;4.85;62.58;101434.36;1670403;85;21057;-70
2022/03/22 01:00:01;;;;;;;14.80;5.78;;;;;;;4.83;62.69;101433.77;1670383;85;21018;-71
2022/03/22 01:01:18;;;;;;;16.20;5.58;;;;;;;4.81;62.79;101433.16;1670293;84;21077;-70
2022/03/22 01:03:48;;;;;;;13.88;4.65;;;;;;;4.79;62.79;101431.22;1675919;84;21634;-71
2022/03/22 01:06:15;;;;;;;17.57;6.30;;;;;;;4.77;62.70;101433.34;1673911;84;21677;-69
2022/03/22 01:08:44;;;;;;;17.77;5.70;;;;;;;4.73;62.69;101435.70;1675761;84;20978;-71
2022/03/22 01:11:11;;;;;;;12.95;5.25;;;;;;;4.70;62.81;101436.70;1674399;84;21045;-70
2022/03/22 01:13:38;;;;;;;14.53;6.28;;;;;;;4.65;62.92;101435.20;1675591;84;20969;-72
2022/03/22 01:16:05;;;;;;;15.15;5.70;;;;;;;4.59;63.05;101436.43;1675928;84;21032;-70
2022/03/22 01:18:33;;;;;;;19.27;6.42;;;;;;;4.55;63.13;101431.16;1677424;84;21986;-72
2022/03/22 01:21:02;;;;;;;12.70;5.58;;;;;;;4.51;63.27;101435.40;1680844;84;21045;-70
2022/03/22 01:23:31;;;;;;;14.75;5.72;;;;;;;4.44;63.62;101427.83;1668823;85;21096;-70
2022/03/22 01:25:59;;;;;;;15.93;5.90;;;;;;;4.39;63.84;101433.98;1672649;84;21565;-72
2022/03/22 01:28:29;;;;;;;15.83;5.20;;;;;;;4.31;64.07;101431.06;1676582;84;21048;-71
2022/03/22 01:31:01;;;;;;;16.40;5.72;;;;;;;4.25;64.26;101425.14;1643318;85;21001;-72
2022/03/22 01:33:28;;;;;;;21.23;6.92;;;;;;;4.20;64.33;101434.03;1654926;85;21482;-68
2022/03/22 01:35:55;;;;;;;16.30;5.97;;;;;;;4.17;64.62;101434.49;1677498;84;20961;-73
2022/03/22 01:38:23;;;;;;;16.07;6.08;;;;;;;4.12;64.87;101434.34;1675148;84;21043;-71
2022/03/22 01:40:50;;;;;;;19.07;6.55;;;;;;;4.09;64.98;101438.38;1669708;84;21103;-72
2022/03/22 01:43:19;;;;;;;14.30;5.62;;;;;;;4.03;65.13;101432.45;1678427;84;21213;-72
2022/03/22 01:45:49;;;;;;;24.95;6.80;;;;;;;4.01;65.27;101431.33;1676150;84;20965;-70
2022/03/22 01:48:18;;;;;;;18.52;6.70;;;;;;;4.00;65.41;101431.56;1667629;84;21206;-70
2022/03/22 01:50:47;;;;;;;17.60;6.85;;;;;;;3.96;65.50;101435.82;1667813;84;21112;-72
2022/03/22 01:53:15;;;;;;;15.48;5.83;;;;;;;3.94;65.53;101435.21;1674645;85;21052;-70
2022/03/22 01:55:44;;;;;;;17.52;7.05;;;;;;;3.91;65.65;101435.67;1673161;84;21107;-68
2022/03/22 01:58:14;;;;;;;11.70;5.65;;;;;;;3.84;65.73;101439.84;1652185;85;21076;-70
2022/03/22 02:00:42;;;;;;;15.15;6.37;;;;;;;3.75;65.86;101436.58;1669635;84;21033;-72
2022/03/22 02:05:55;;;;;;;15.55;6.03;;;;;;;3.65;65.99;101433.02;1665515;85;20966;-70
2022/03/22 02:08:32;;;;;;;15.68;7.17;;;;;;;3.56;66.26;101433.84;1677961;84;21178;-73
2022/03/22 02:11:01;;;;;;;15.15;5.97;;;;;;;3.49;66.49;101435.28;1672244;84;20970;-69
2022/03/22 02:13:31;;;;;;;21.15;6.12;;;;;;;3.46;66.81;101429.44;1673359;84;21049;-72
2022/03/22 02:16:04;;;;;;;19.05;7.15;;;;;;;3.41;66.94;101434.20;1676717;84;21067;-72
2022/03/22 02:18:32;;;;;;;18.62;6.97;;;;;;;3.43;66.96;101435.34;1675526;84;21101;-69
2022/03/22 02:21:10;;;;;;;13.48;6.70;;;;;;;3.39;66.94;101434.44;1661527;84;20996;-72
2022/03/22 02:23:59;;;;;;;17.45;7.00;;;;;;;3.37;67.11;101438.42;1675677;84;21547;-69
2022/03/22 02:26:27;;;;;;;15.43;6.60;;;;;;;3.35;67.03;101442.74;1672138;85;21017;-72
2022/03/22 02:28:58;;;;;;;12.53;6.55;;;;;;;3.34;66.95;101437.52;1675852;84;21040;-69
2022/03/22 02:31:33;;;;;;;15.65;6.37;;;;;;;3.31;66.81;101436.06;1676238;83;21002;-71
2022/03/22 02:34:07;;;;;;;12.95;6.35;;;;;;;3.28;66.69;101444.69;1675073;84;21533;-71
2022/03/22 02:36:33;;;;;;;24.10;7.10;;;;;;;3.23;66.72;101446.73;1672556;84;20954;-72
2022/03/22 02:39:02;;;;;;;20.37;7.47;;;;;;;3.20;66.86;101446.34;1651552;85;21423;-69
2022/03/22 02:41:30;;;;;;;13.03;6.40;;;;;;;3.15;66.85;101452.45;1672924;84;21012;-73
2022/03/22 02:43:57;;;;;;;21.05;7.00;;;;;;;3.10;66.85;101450.41;1667121;85;20977;-72
2022/03/22 02:46:24;;;;;;;21.17;7.17;;;;;;;3.05;67.15;101451.61;1672064;85;21486;-72
2022/03/22 02:48:54;;;;;;;20.88;7.70;;;;;;;2.99;67.75;101455.19;1675739;84;21001;-70
2022/03/22 02:51:21;;;;;;;16.87;6.20;;;;;;;2.92;68.10;101455.25;1670800;85;21182;-72
2022/03/22 02:53:59;;;;;;;15.20;7.03;;;;;;;2.88;68.33;101451.31;1673405;84;21434;-70
2022/03/22 02:56:31;;;;;;;20.43;6.47;;;;;;;2.86;68.57;101453.41;1665078;85;21497;-71
2022/03/22 02:59:00;;;;;;;18.60;7.08;;;;;;;2.82;68.86;101458.98;1677050;84;21081;-68
2022/03/22 03:01:27;;;;;;;23.47;7.60;;;;;;;2.79;68.98;101448.02;1677160;84;21110;-71
2022/03/22 03:03:56;;;;;;;24.90;8.08;;;;;;;2.77;69.03;101450.13;1678784;84;21112;-71
2022/03/22 03:06:25;;;;;;;34.03;8.20;;;;;;;2.71;69.34;101449.65;1676137;84;20992;-71
2022/03/22 03:08:58;;;;;;;31.45;9.23;;;;;;;2.65;69.69;101450.83;1674421;84;21454;-72
2022/03/22 03:11:30;;;;;;;20.90;8.40;;;;;;;2.62;69.99;101451.28;1677567;84;21298;-72
2022/03/22 03:16:44;;;;;;;23.67;9.28;;;;;;;2.59;70.29;101449.00;1671428;85;21556;-74
2022/03/22 03:19:11;;;;;;;25.32;9.78;;;;;;;2.55;70.54;101448.59;1678029;84;21605;-73
2022/03/22 03:21:38;;;;;;;27.82;9.60;;;;;;;2.52;70.79;101446.84;1670563;85;21120;-73
2022/03/22 03:24:09;;;;;;;25.77;9.68;;;;;;;2.47;71.02;101452.94;1674310;84;22080;-74
2022/03/22 03:26:38;;;;;;;26.23;9.55;;;;;;;2.46;71.14;101455.88;1677046;84;21109;-72
2022/03/22 03:29:12;;;;;;;26.40;9.80;;;;;;;2.47;71.12;101461.11;1656351;84;21473;-73
2022/03/22 03:31:40;;;;;;;22.27;9.18;;;;;;;2.46;71.26;101458.60;1673666;83;21072;-71
2022/03/22 03:34:07;;;;;;;27.35;8.98;;;;;;;2.45;71.36;101451.47;1670562;84;21131;-69
2022/03/22 03:36:35;;;;;;;22.32;8.40;;;;;;;2.45;71.39;101452.83;1676915;84;21421;-73
2022/03/22 03:39:04;;;;;;;25.12;8.70;;;;;;;2.46;71.33;101458.05;1669865;85;20993;-71
2022/03/22 03:41:53;;;;;;;23.25;9.30;;;;;;;2.45;71.07;101456.91;1672427;85;21215;-70
2022/03/22 03:47:22;;;;;;;19.52;7.78;;;;;;;2.40;70.57;101467.10;1670955;84;21055;-69
2022/03/22 03:49:54;;;;;;;21.73;8.08;;;;;;;2.34;70.28;101468.79;1666083;85;21190;-73
2022/03/22 03:52:30;;;;;;;20.35;7.65;;;;;;;2.28;70.29;101468.31;1684434;84;21100;-70
2022/03/22 03:55:00;;;;;;;21.68;8.13;;;;;;;2.24;70.38;101474.70;1675201;84;21554;-71
2022/03/22 03:57:27;;;;;;;18.80;8.28;;;;;;;2.20;70.35;101478.92;1674012;84;20993;-71
2022/03/22 03:59:57;;;;;;;18.62;7.42;;;;;;;2.16;70.39;101475.80;1675298;84;21021;-72
2022/03/22 04:02:25;;;;;;;19.42;8.23;;;;;;;2.14;70.39;101475.69;1672956;84;21729;-73
2022/03/22 04:04:55;;;;;;;19.00;7.40;;;;;;;2.12;70.44;101477.78;1676170;84;21493;-71
2022/03/22 04:07:25;;;;;;;22.60;8.58;;;;;;;2.10;70.53;101477.99;1678481;84;21119;-69
2022/03/22 04:09:54;;;;;;;23.98;8.63;;;;;;;2.08;70.49;101483.35;1682232;84;21035;-71
2022/03/22 04:12:22;;;;;;;20.30;8.28;;;;;;;2.05;70.42;101490.04;1676317;84;20964;-73
2022/03/22 04:14:51;;;;;;;21.50;7.72;;;;;;;1.99;70.55;101489.03;1671261;85;21048;-70
2022/03/22 04:17:19;;;;;;;17.65;8.60;;;;;;;1.91;70.84;101486.00;1659163;84;21039;-72
2022/03/22 04:19:49;;;;;;;17.50;8.30;;;;;;;1.88;70.83;101489.16;1676012;84;22238;-71
2022/03/22 04:22:16;;;;;;;17.32;7.53;;;;;;;1.87;70.76;101488.86;1676217;84;21114;-71
2022/03/22 04:24:46;;;;;;;19.80;7.80;;;;;;;1.85;70.75;101492.30;1667189;84;21124;-71
2022/03/22 04:33:08;;;;;;;18.77;8.38;;;;;;;1.87;70.91;101492.94;1671012;84;21012;-70
2022/03/22 04:35:39;;;;;;;19.67;7.83;;;;;;;1.87;70.91;101500.25;1668274;85;20966;-70
2022/03/22 04:38:13;;;;;;;22.48;7.85;;;;;;;1.88;71.08;101507.34;1680225;84;21056;-72
2022/03/22 04:40:47;;;;;;;25.23;8.13;;;;;;;1.90;71.32;101507.46;1679628;84;20857;-69
2022/03/22 04:43:14;;;;;;;20.10;7.67;;;;;;;1.94;71.31;101507.87;1672310;84;21059;-69
2022/03/22 04:45:41;;;;;;;21.48;7.20;;;;;;;1.94;71.28;101516.84;1674374;84;21013;-70
2022/03/22 04:48:09;;;;;;;13.80;6.95;;;;;;;1.96;71.45;101520.73;1670747;85;20998;-71
2022/03/22 04:50:39;;;;;;;21.07;8.55;;;;;;;2.00;71.58;101522.48;1668853;85;21016;-72
2022/03/22 04:58:40;;;;;;;22.00;8.40;;;;;;;2.21;72.36;101519.18;1673135;84;21049;-72
2022/03/22 05:01:08;;;;;;;24.30;7.75;;;;;;;2.27;72.36;101521.87;1666217;84;21629;-69
2022/03/22 05:03:40;;;;;;;22.73;8.50;;;;;;;2.32;72.56;101521.22;1675694;84;21048;-70
2022/03/22 05:06:26;;;;;;;22.85;8.05;;;;;;;2.42;72.83;101520.25;1666647;84;21028;-70
2022/03/22 05:08:55;;;;;;;24.65;8.33;;;;;;;2.51;72.95;101522.72;1669797;84;20950;-72
2022/03/22 05:11:24;;;;;;;21.77;8.15;;;;;;;2.64;73.01;101525.92;1675275;84;21005;-71
2022/03/22 05:13:54;;;;;;;20.32;9.25;;;;;;;2.74;73.19;101520.84;1646587;85;20997;-69
2022/03/22 05:16:21;;;;;;;20.92;8.85;;;;;;;2.86;73.25;101522.86;1676069;84;20965;-71
2022/03/22 05:18:51;;;;;;;24.23;9.33;;;;;;;2.96;73.25;101523.73;1672715;84;21112;-70
2022/03/22 05:21:18;;;;;;;21.77;9.08;;;;;;;3.07;73.23;101527.11;1676346;84;21048;-72
2022/03/22 05:23:46;;;;;;;23.20;9.20;;;;;;;3.20;73.06;101529.44;1667519;85;20959;-71
2022/03/22 05:26:17;;;;;;;23.40;8.13;;;;;;;3.31;72.91;101526.54;1669991;84;21466;-71
2022/03/22 05:28:45;;;;;;;23.85;7.62;;;;;;;3.41;72.74;101527.69;1669089;84;20935;-73
2022/03/22 05:31:14;;;;;;;18.52;8.08;;;;;;;3.52;72.38;101523.94;1668357;84;21288;-71
2022/03/22 05:33:42;;;;;;;18.87;7.40;;;;;;;3.63;72.14;101534.10;1672998;84;21283;-69
2022/03/22 05:36:10;;;;;;;14.55;7.10;;;;;;;3.75;71.86;101540.20;1669951;85;21565;-71
2022/03/22 05:38:42;;;;;;;17.42;8.45;;;;;;;3.87;71.65;101541.11;1646863;85;21126;-71
2022/03/22 05:41:10;;;;;;;26.90;9.43;;;;;;;3.98;71.37;101531.88;1677294;84;21005;-72
2022/03/22 05:43:39;;;;;;;16.80;7.78;;;;;;;4.11;71.03;101543.20;1665332;85;21398;-70
2022/03/22 05:46:07;;;;;;;21.97;8.15;;;;;;;4.22;70.59;101546.53;1674902;84;20938;-71
2022/03/22 05:48:39;;;;;;;23.70;7.70;;;;;;;4.33;70.09;101546.28;1676921;84;21128;-72
2022/03/22 05:51:06;;;;;;;25.50;9.40;;;;;;;4.42;69.70;101550.09;1665799;84;20986;-68
2022/03/22 05:53:34;;;;;;;17.98;8.10;;;;;;;4.51;69.30;101550.07;1670979;84;22215;-71
2022/03/22 05:56:02;;;;;;;21.65;8.73;;;;;;;4.61;68.94;101549.52;1670450;84;21870;-71
2022/03/22 05:58:29;;;;;;;23.95;9.53;;;;;;;4.70;68.60;101550.05;1673187;84;20973;-72
2022/03/22 06:00:57;;;;;;;18.40;7.47;;;;;;;4.78;68.27;101554.38;1674603;84;20961;-72
2022/03/22 06:03:24;;;;;;;23.07;8.83;;;;;;;4.85;67.61;101555.93;1679893;84;21523;-70
2022/03/22 06:05:56;;;;;;;27.50;7.92;;;;;;;4.95;67.28;101560.83;1674609;84;20893;-69
2022/03/22 06:08:23;;;;;;;24.90;8.70;;;;;;;5.02;66.96;101558.00;1671695;84;21237;-69
2022/03/22 06:10:50;;;;;;;20.77;8.33;;;;;;;5.11;66.46;101562.09;1676561;84;21710;-69
2022/03/22 06:13:18;;;;;;;18.65;7.65;;;;;;;5.21;66.10;101564.25;1659387;83;21545;-69
2022/03/22 06:15:50;;;;;;;17.37;7.53;;;;;;;5.29;65.73;101556.78;1675450;84;20952;-70
2022/03/22 06:18:18;;;;;;;20.90;7.97;;;;;;;5.36;65.32;101561.59;1675788;84;20954;-68
2022/03/22 06:20:47;;;;;;;21.55;8.43;;;;;;;5.44;65.14;101568.08;1670194;84;21103;-68
2022/03/22 06:23:20;;;;;;;23.50;8.25;;;;;;;5.53;65.02;101567.73;1656535;84;21649;-73
2022/03/22 06:25:48;;;;;;;30.95;8.85;;;;;;;5.62;64.71;101570.96;1667574;85;21241;-70
2022/03/22 06:28:18;;;;;;;21.65;8.53;;;;;;;5.70;64.25;101569.23;1664904;84;20910;-70
2022/03/22 06:30:45;;;;;;;23.98;9.50;;;;;;;5.76;63.67;101575.67;1675476;84;21565;-71
2022/03/22 06:33:16;;;;;;;21.20;8.58;;;;;;;5.81;63.56;101573.91;1655317;85;21751;-68
2022/03/22 06:35:44;;;;;;;25.20;8.05;;;;;;;5.91;63.28;101577.94;1675020;84;21517;-71
2022/03/22 06:38:13;;;;;;;18.12;7.95;;;;;;;6.00;63.13;101580.62;1673198;84;20992;-69
2022/03/22 06:40:41;;;;;;;16.82;7.53;;;;;;;6.09;62.83;101581.95;1671380;84;21071;-72
2022/03/22 06:43:11;;;;;;;22.27;8.55;;;;;;;6.18;62.30;101581.58;1671419;85;21068;-68
2022/03/22 06:45:39;;;;;;;21.17;7.58;;;;;;;6.28;61.83;101591.92;1678315;84;21151;-70
2022/03/22 06:48:08;;;;;;;20.00;8.63;;;;;;;6.37;61.66;101586.91;1675440;84;20938;-69
2022/03/22 06:50:37;;;;;;;17.85;7.05;;;;;;;6.48;61.35;101589.34;1672460;85;21407;-71
2022/03/22 06:53:06;;;;;;;16.65;7.62;;;;;;;6.58;60.72;101583.52;1679003;84;21498;-72
2022/03/22 06:55:34;;;;;;;24.43;8.70;;;;;;;6.72;60.19;101592.02;1674527;85;21175;-71
2022/03/22 06:58:03;;;;;;;25.12;7.80;;;;;;;6.84;59.51;101593.34;1673748;84;21613;-71
2022/03/22 07:00:33;;;;;;;17.32;7.22;;;;;;;6.92;59.03;101599.28;1675156;84;21005;-71
2022/03/22 07:03:04;;;;;;;24.80;8.60;;;;;;;7.02;58.72;101595.89;1672105;84;21076;-68
2022/03/22 07:05:38;;;;;;;19.90;7.62;;;;;;;7.13;58.33;101600.20;1671827;85;21002;-71
2022/03/22 07:08:08;;;;;;;16.12;6.08;;;;;;;7.26;58.11;101593.04;1672499;84;21076;-71
2022/03/22 07:10:37;;;;;;;16.85;7.25;;;;;;;7.40;57.43;101593.53;1668172;85;20958;-69
2022/03/22 07:13:07;;;;;;;17.48;6.37;;;;;;;7.52;56.80;101599.51;1673604;84;21017;-72
2022/03/22 07:15:37;;;;;;;18.40;6.65;;;;;;;7.62;56.14;101596.94;1670423;84;20858;-71
2022/03/22 07:18:14;;;;;;;22.77;7.40;;;;;;;7.73;55.67;101604.78;1673098;84;21466;-73
2022/03/22 07:20:44;;;;;;;17.87;7.47;;;;;;;7.82;55.14;101596.96;1670541;84;20968;-72
2022/03/22 07:23:11;;;;;;;20.50;7.85;;;;;;;7.93;54.63;101606.73;1677684;84;21796;-70
2022/03/22 07:25:39;;;;;;;18.07;7.12;;;;;;;8.01;54.22;101597.53;1653666;85;20902;-70
2022/03/22 07:28:06;;;;;;;20.65;6.70;;;;;;;8.11;53.49;101589.14;1668695;85;20949;-71
2022/03/22 07:30:34;;;;;;;24.95;7.87;;;;;;;8.13;53.20;101597.97;1669658;83;20985;-71
2022/03/22 07:33:04;;;;;;;21.87;7.37;;;;;;;8.19;52.91;101592.82;1682453;84;21445;-69
2022/03/22 07:35:32;;;;;;;20.90;8.03;;;;;;;8.26;51.95;101589.36;1675560;84;21120;-70
2022/03/22 07:38:00;;;;;;;16.23;7.28;;;;;;;8.30;51.90;101588.84;1675137;84;21316;-71
2022/03/22 07:40:30;;;;;;;17.90;7.35;;;;;;;8.38;51.50;101591.15;1672166;84;21012;-70
2022/03/22 07:42:59;;;;;;;15.55;6.78;;;;;;;8.46;51.32;101591.27;1666350;85;21051;-69
2022/03/22 07:45:26;;;;;;;19.02;7.50;;;;;;;8.55;51.01;101595.25;1672317;84;21088;-69
2022/03/22 07:47:52;;;;;;;20.52;7.45;;;;;;;8.66;50.90;101589.87;1672206;84;21603;-70
2022/03/22 07:53:07;;;;;;;19.95;7.50;;;;;;;8.80;49.70;101588.41;1681170;84;21568;-69
2022/03/22 07:55:43;;;;;;;22.70;7.12;;;;;;;8.87;49.95;101589.59;1672482;84;20994;-70
2022/03/22 07:58:18;;;;;;;;;;;;;;;8.95;49.93;101593.78;1671169;85;21147;-70
2022/03/22 08:00:47;;;;;;;19.45;6.72;;;;;;;9.03;49.09;101597.45;1676343;84;20128;-70
2022/03/22 08:03:21;;;;;;;21.37;7.90;;;;;;;9.11;48.82;101598.91;1683082;84;20988;-69
2022/03/22 08:05:55;;;;;;;16.73;6.67;;;;;;;9.22;49.24;101589.67;1670192;85;21680;-69
2022/03/22 08:08:28;;;;;;;23.00;7.80;;;;;;;9.37;48.91;101593.64;1668688;85;21025;-69
2022/03/22 08:10:57;;;;;;;17.92;8.00;;;;;;;9.57;48.87;101597.68;1676258;84;21458;-71
2022/03/22 08:13:26;;;;;;;20.45;8.10;;;;;;;9.71;47.99;101598.05;1676080;84;21148;-70
2022/03/22 08:15:55;;;;;;;16.97;8.23;;;;;;;9.82;47.77;101600.34;1671887;85;21057;-71
2022/03/22 08:18:22;;;;;;;19.52;7.97;;;;;;;9.92;46.72;101603.17;1670715;84;21033;-73
2022/03/22 08:20:49;;;;;;;24.40;8.18;;;;;;;9.91;46.09;101600.12;1673673;84;21071;-69
2022/03/22 08:23:21;;;;;;;17.25;7.50;;;;;;;9.92;46.47;101597.66;1675881;84;21123;-69
2022/03/22 08:25:57;;;;;;;19.95;7.65;;;;;;;10.03;46.68;101591.66;1671711;84;21511;-69
2022/03/22 08:28:26;;;;;;;20.95;7.58;;;;;;;10.18;46.43;101584.59;1675840;84;21049;-71
2022/03/22 08:30:53;;;;;;;19.87;7.60;;;;;;;10.33;45.77;101589.36;1677806;84;21084;-70
2022/03/22 08:33:20;;;;;;;18.77;7.47;;;;;;;10.47;45.22;101589.73;1671534;84;21072;-74
2022/03/22 08:35:49;;;;;;;20.77;7.92;;;;;;;10.59;44.78;101584.80;1674050;84;21434;-71
2022/03/22 08:38:19;;;;;;;19.52;8.03;;;;;;;10.67;43.71;101586.77;1676411;84;21086;-72
2022/03/22 08:40:48;;;;;;;20.43;7.78;;;;;;;10.69;44.17;101591.47;1666295;85;20902;-69
2022/03/22 08:43:19;;;;;;;21.07;8.20;;;;;;;10.82;44.09;101584.06;1673472;84;21083;-71
2022/03/22 08:45:52;;;;;;;17.65;7.70;;;;;;;10.99;44.14;101583.54;1674650;84;25945;-68
2022/03/22 08:48:19;;;;;;;18.48;6.67;;;;;;;11.07;42.44;101592.69;1674425;84;21497;-71
2022/03/22 08:50:50;;;;;;;18.55;6.92;;;;;;;11.13;41.96;101587.98;1671549;84;20958;-70
2022/03/22 08:53:19;;;;;;;17.73;7.42;;;;;;;11.19;42.30;101583.58;1673240;84;21021;-71
2022/03/22 08:55:47;;;;;;;14.15;6.53;;;;;;;11.37;42.70;101580.56;1662833;85;21073;-68
2022/03/22 08:58:16;;;;;;;14.90;5.78;;;;;;;11.52;42.06;101586.64;1672987;85;21123;-70
2022/03/22 09:00:45;;;;;;;17.77;6.47;;;;;;;11.64;41.60;101583.06;1677141;84;21516;-71
2022/03/22 09:03:14;;;;;;;15.28;4.70;;;;;;;11.78;41.58;101584.71;1674864;84;21158;-72
2022/03/22 09:08:28;;;;;;;12.70;5.50;;;;;;;12.01;39.09;101577.50;1670702;84;21028;-71
2022/03/22 09:10:57;;;;;;;17.20;6.80;;;;;;;12.13;39.40;101576.65;1665788;84;21120;-69
2022/03/22 09:13:31;;;;;;;16.35;6.53;;;;;;;12.15;37.50;101569.45;1675243;84;21079;-70
2022/03/22 09:15:57;;;;;;;18.02;6.28;;;;;;;12.20;37.56;101578.31;1668804;85;21065;-71
2022/03/22 09:18:26;;;;;;;12.20;5.33;;;;;;;12.17;37.85;101580.52;1674177;84;21242;-73
2022/03/22 09:20:53;;;;;;;14.98;5.40;;;;;;;12.27;37.70;101572.75;1653458;85;21065;-70
2022/03/22 09:23:21;;;;;;;14.55;6.30;;;;;;;12.41;37.49;101571.59;1632658;85;21028;-71
2022/03/22 09:25:50;;;;;;;19.62;7.97;;;;;;;12.58;37.79;101561.28;1637021;85;21057;-69
2022/03/22 09:28:19;;;;;;;14.83;5.45;;;;;;;12.74;36.90;101561.47;1640581;86;21643;-72
2022/03/22 09:30:48;;;;;;;11.18;5.17;;;;;;;12.76;35.56;101557.87;1659715;85;20962;-73
2022/03/22 09:33:17;;;;;;;9.48;4.47;;;;;;;12.82;35.24;101560.61;1614899;88;21442;-72
2022/03/22 09:35:48;;;;;;;16.02;5.70;;;;;;;12.93;34.89;101558.61;1616854;88;20991;-71
2022/03/22 09:38:16;;;;;;;11.73;4.78;;;;;;;13.06;34.91;101553.82;1616932;88;21080;-73
2022/03/22 09:40:43;;;;;;;15.00;5.37;;;;;;;13.15;34.40;101554.04;1613449;88;21802;-70
2022/03/22 09:43:10;;;;;;;14.25;5.22;;;;;;;13.25;34.62;101555.90;1609336;87;21095;-68
2022/03/22 09:45:38;;;;;;;10.30;4.67;;;;;;;13.39;34.79;101547.19;1617062;88;20966;-69
2022/03/22 09:48:05;;;;;;;10.08;4.20;;;;;;;13.55;34.30;101547.09;1617035;88;21012;-73
2022/03/22 09:53:18;;;;;;;12.68;4.35;;;;;;;13.74;32.50;101547.74;1662763;85;21261;-73
2022/03/22 09:55:46;;;;;;;13.15;4.97;;;;;;;13.86;32.59;101550.95;1653340;85;21406;-69
2022/03/22 09:58:15;;;;;;;11.05;4.30;;;;;;;13.98;32.92;101545.01;1654268;85;21014;-71
2022/03/22 10:00:47;;;;;;;11.22;4.25;;;;;;;14.12;32.74;101546.49;1646737;85;21474;-72
2022/03/22 10:03:24;;;;;;;10.90;4.50;;;;;;;14.27;32.63;101533.59;1648921;85;21430;-71
2022/03/22 10:06:03;;;;;;;10.65;4.30;;;;;;;14.43;31.70;101532.81;1644156;85;21025;-73
2022/03/22 10:08:31;;;;;;;13.32;4.87;;;;;;;14.46;31.66;101532.80;1660146;85;21077;-70
2022/03/22 10:11:01;;;;;;;8.73;3.95;;;;;;;14.56;32.02;101530.44;1676642;84;20985;-69
2022/03/22 10:13:28;;;;;;;9.08;3.70;;;;;;;14.69;32.22;101534.41;1655511;84;21037;-69
2022/03/22 10:16:07;;;;;;;6.92;3.50;;;;;;;14.86;31.24;101528.37;1679141;84;21008;-72
2022/03/22 10:18:37;;;;;;;6.30;2.77;;;;;;;14.91;29.96;101530.27;1670289;84;21775;-70
2022/03/22 10:21:04;;;;;;;6.92;2.10;;;;;;;14.98;30.05;101527.92;1677061;84;21001;-68
2022/03/22 10:23:31;;;;;;;3.80;2.05;;;;;;;15.05;28.90;101523.37;1651807;85;21632;-73
2022/03/22 10:26:09;;;;;;;5.87;2.50;;;;;;;15.13;28.24;101521.87;1644236;85;21025;-71
2022/03/22 10:28:39;;;;;;;8.68;2.80;;;;;;;15.20;27.71;101520.34;1664014;85;21520;-72
2022/03/22 10:31:06;;;;;;;9.90;2.33;;;;;;;15.28;27.71;101517.46;1669860;84;21267;-72
2022/03/22 10:33:33;;;;;;;9.93;2.85;;;;;;;15.39;27.91;101515.88;1673460;84;20954;-71
2022/03/22 10:36:14;;;;;;;10.13;2.72;;;;;;;15.51;28.08;101510.66;1664422;85;21004;-73
2022/03/22 10:38:56;;;;;;;8.25;2.70;;;;;;;15.63;27.91;101506.56;1664739;85;21506;-73
2022/03/22 10:41:32;;;;;;;11.10;3.00;;;;;;;15.73;27.82;101507.77;1670997;85;20993;-73
2022/03/22 10:44:12;;;;;;;5.20;1.87;;;;;;;15.82;27.82;101504.55;1668356;84;21573;-74
2022/03/22 10:46:46;;;;;;;7.42;2.60;;;;;;;15.93;27.73;101502.95;1658576;85;20962;-70
2022/03/22 10:49:21;;;;;;;10.30;2.60;;;;;;;16.02;27.62;101498.34;1668197;84;21036;-73
2022/03/22 10:51:50;;;;;;;8.10;2.75;;;;;;;16.11;27.31;101497.61;1675886;84;21120;-71
2022/03/22 10:54:19;;;;;;;10.30;2.83;;;;;;;16.12;26.80;101492.32;1675002;85;21044;-72
2022/03/22 10:56:53;;;;;;;6.35;2.35;;;;;;;16.08;26.50;101494.06;1673060;83;21266;-71
2022/03/22 10:59:23;;;;;;;9.83;3.10;;;;;;;15.96;26.16;101494.55;1656698;85;21512;-72
2022/03/22 11:01:52;;;;;;;8.55;3.70;;;;;;;15.81;26.54;101488.98;1668094;84;20961;-73
2022/03/22 11:04:19;;;;;;;8.35;2.95;;;;;;;15.75;26.80;101489.39;1662164;85;21855;-74
2022/03/22 11:06:48;;;;;;;8.83;3.27;;;;;;;15.75;27.29;101486.05;1668843;84;21124;-72
2022/03/22 11:09:20;;;;;;;9.95;3.33;;;;;;;15.81;27.45;101483.42;1671223;84;21781;-71
2022/03/22 11:11:50;;;;;;;9.25;3.80;;;;;;;15.91;27.97;101478.25;1671063;84;21435;-71
2022/03/22 11:14:19;;;;;;;9.73;3.42;;;;;;;16.05;27.78;101477.45;1651617;84;20946;-71
2022/03/22 11:16:50;;;;;;;7.35;3.25;;;;;;;16.12;27.64;101472.86;1675317;84;20885;-72
2022/03/22 11:19:17;;;;;;;10.13;3.87;;;;;;;16.22;28.12;101464.30;1660169;85;21120;-72
2022/03/22 11:21:47;;;;;;;16.12;4.05;;;;;;;16.36;28.15;101463.45;1667455;84;21550;-69
2022/03/22 11:24:23;;;;;;;9.93;5.33;;;;;;;16.48;27.85;101464.30;1651242;85;21006;-73
2022/03/22 11:26:54;;;;;;;11.97;4.47;;;;;;;16.60;28.00;101462.36;1664680;85;20997;-72
2022/03/22 11:29:22;;;;;;;8.75;4.78;;;;;;;16.66;27.84;101459.14;1661453;84;21071;-71
2022/03/22 11:34:09;;;;;;;8.20;3.92;;;;;;;16.69;27.63;101457.67;1672962;84;21734;-71
2022/03/22 11:34:20;;;;;;;11.75;4.72;;;;;;;16.70;27.53;101452.35;1638093;85;21163;-72
2022/03/22 11:36:53;;;;;;;13.53;4.42;;;;;;;16.67;27.18;101449.64;1665900;84;21080;-70
2022/03/22 11:42:15;;;;;;;8.93;4.40;;;;;;;16.66;27.48;101446.62;1667409;84;21553;-71
2022/03/22 11:44:42;;;;;;;12.60;3.85;;;;;;;16.29;26.82;101445.21;1660788;85;21518;-71
2022/03/22 11:47:14;;;;;;;10.80;4.70;;;;;;;16.04;27.59;101443.25;1664289;84;21973;-72
2022/03/22 11:50:00;;;;;;;13.10;4.25;;;;;;;15.95;27.46;101449.24;1675199;85;21108;-72
2022/03/22 11:52:40;;;;;;;9.85;3.62;;;;;;;16.04;28.36;101445.20;1659359;84;21628;-71
2022/03/22 11:55:14;;;;;;;9.20;4.30;;;;;;;16.29;28.65;101443.82;1673346;83;20984;-72
2022/03/22 11:57:49;;;;;;;12.28;5.00;;;;;;;16.55;28.53;101438.23;1659417;85;21055;-72
2022/03/22 12:00:56;;;;;;;10.93;4.90;;;;;;;16.74;28.11;101432.50;1675335;84;21835;-71
2022/03/22 12:03:28;;;;;;;10.40;4.50;;;;;;;16.86;27.67;101426.92;1678303;83;20952;-71
2022/03/22 12:05:52;;;;;;;10.40;4.53;;;;;;;16.88;27.71;101429.66;1702091;83;21083;-71
2022/03/22 12:08:21;;;;;;;13.48;4.83;;;;;;;16.98;27.77;101425.79;1674210;84;21580;-70